Ana Sayfa
METAR-TAF:

METAR-TAF

Havaalanları :

Winston Field

Snyder, Teksas, Amerika Birleşik Devletleri

Enlem: 32-41-36N, Boylam: 100-57-01W, yükseklik: 741 m

Güncel hava durumu gözlemi

Rapor saat 11:15 UTC de 16 dakika önce yapıldı.
Rüzgar güney/güneydoğudan 22 kt ve 25 kt'a kadar ani rüzgarlar
Sıcaklık 26°C
Nem 61%
Basınç 1009 hPa
Görüş mesafesi: 16.1 km
Açık gökyüzü

METAR: KSNK 161115Z AUTO 16022G25KT 10SM CLR 26/18 A2981 RMK AO2 LTG DSNT SE T02550175

Saat: 06:31 (11:31 UTC)


TAF: eksik

4.000'den fazla havaalanı için hava durumu gözlemleri ve tahminleri (METAR ve TAF raporları).

Kullanılabilir istasyonlar harita üzerinde sarı ve kırmızı noktalarla gösterilir.

İstasyonun adını görmek için fareyi noktanın üzerinde gezdirin.

Sonrasında hava gözlem ve tahminlerini görmek için tıklayın.

Haritayı değiştirmek için: yaklaştırmak için siyah artı işaretli yeşil düğmeye ve uzaklaştırmak için de eksi işaretli düğmeye hızla tıklayın; bitişik haritalar için yeşil okları kullanın.


METAR-TAF: